Time;durP1;ratioP1;P1;durP2;ratioP2;P2;SDS_P1;SDS_P2;PMS_P1;PMS_P2;Temp;Humidity;BMP_temperature;BMP_pressure;BME280_temperature;BME280_humidity;BME280_pressure;Samples;Min_cycle;Max_cycle;Signal;HPM_P1;HPM_P2
2022/12/16 00:00:33;;;;;;;14.13;9.77;;;;;;;-0.48;83.00;101048.59;6191609;28;20237;-69
2022/12/16 00:03:55;;;;;;;13.97;10.43;;;;;;;-0.43;82.80;101048.41;6186347;28;20229;-69
2022/12/16 00:07:17;;;;;;;17.83;10.70;;;;;;;-0.43;82.27;101051.06;6186390;28;20695;-68
2022/12/16 00:14:13;;;;;;;10.80;8.13;;;;;;;-0.75;82.63;101056.81;6199393;28;20232;-69
2022/12/16 00:17:35;;;;;;;12.67;7.77;;;;;;;-1.10;84.16;101068.75;6187631;28;20233;-69
2022/12/16 00:20:56;;;;;;;16.80;8.57;;;;;;;-0.90;84.20;101071.50;6190062;28;20684;-68
2022/12/16 00:24:18;;;;;;;12.17;9.07;;;;;;;-0.83;83.88;101076.50;6199003;28;20261;-69
2022/12/16 00:27:39;;;;;;;12.03;8.37;;;;;;;-0.61;83.82;101075.66;6203475;28;20226;-69
2022/12/16 00:31:00;;;;;;;13.17;9.77;;;;;;;-0.51;82.55;101075.22;6194350;28;20233;-68
2022/12/16 00:34:21;;;;;;;13.87;8.17;;;;;;;-0.47;82.65;101078.59;6207055;28;20674;-69
2022/12/16 00:37:42;;;;;;;11.87;8.43;;;;;;;-0.33;82.36;101063.88;6205441;28;20508;-68
2022/12/16 00:41:05;;;;;;;14.13;10.17;;;;;;;-0.42;81.59;101069.56;6208269;28;20245;-69
2022/12/16 00:44:25;;;;;;;10.23;8.23;;;;;;;-0.60;82.08;101072.94;6209647;28;20236;-68
2022/12/16 00:47:48;;;;;;;19.33;11.33;;;;;;;-0.54;82.64;101080.63;6202961;28;20257;-68
2022/12/16 00:51:09;;;;;;;12.50;9.43;;;;;;;-0.66;82.86;101074.97;6184029;28;20316;-68
2022/12/16 00:54:30;;;;;;;13.17;8.67;;;;;;;-0.68;82.53;101082.97;6188464;28;20225;-69
2022/12/16 00:57:53;;;;;;;12.93;8.30;;;;;;;-0.72;82.25;101076.06;6208384;28;21274;-68
2022/12/16 01:01:14;;;;;;;8.43;7.63;;;;;;;-0.88;83.49;101086.38;6184245;28;20619;-68
2022/12/16 01:04:35;;;;;;;11.53;9.20;;;;;;;-0.74;83.09;101091.16;6196960;28;20253;-69
2022/12/16 01:07:56;;;;;;;11.43;7.83;;;;;;;-0.87;83.78;101087.25;6196666;28;20229;-68
2022/12/16 01:11:19;;;;;;;14.30;10.17;;;;;;;-0.77;83.78;101091.25;6183830;28;20722;-67
2022/12/16 01:14:41;;;;;;;18.20;8.70;;;;;;;-0.66;83.29;101086.41;6196737;28;20260;-68
2022/12/16 01:18:02;;;;;;;10.97;8.00;;;;;;;-0.70;82.96;101091.88;6200719;28;20237;-68
2022/12/16 01:21:23;;;;;;;15.23;9.87;;;;;;;-0.59;82.36;101089.69;6187715;28;20252;-68
2022/12/16 01:24:44;;;;;;;11.23;10.07;;;;;;;-0.57;82.32;101099.28;6192494;28;20619;-68
2022/12/16 01:28:05;;;;;;;11.83;8.57;;;;;;;-0.72;83.34;101104.31;6206141;28;20547;-68
2022/12/16 01:31:27;;;;;;;12.03;7.93;;;;;;;-0.63;83.29;101118.06;6192711;28;20225;-68
2022/12/16 01:34:49;;;;;;;11.90;8.50;;;;;;;-0.70;82.90;101118.34;6190957;28;20331;-68
2022/12/16 01:38:10;;;;;;;15.43;9.20;;;;;;;-0.68;83.06;101122.66;6196526;28;20280;-69
2022/12/16 01:41:31;;;;;;;12.43;7.67;;;;;;;-0.72;83.56;101123.72;6190626;28;21025;-68
2022/12/16 01:44:53;;;;;;;12.63;8.73;;;;;;;-0.57;83.19;101125.75;6194265;28;20241;-68
2022/12/16 01:48:22;;;;;;;14.47;8.33;;;;;;;-0.48;82.70;101127.19;6207816;28;20237;-68
2022/12/16 01:51:44;;;;;;;11.30;7.87;;;;;;;-0.59;82.91;101129.38;6194519;28;20614;-68
2022/12/16 01:55:12;;;;;;;11.50;6.70;;;;;;;-0.55;83.04;101129.22;6194927;28;20224;-67
2022/12/16 01:58:36;;;;;;;11.87;9.33;;;;;;;-0.62;83.30;101132.13;6202250;28;20228;-68
2022/12/16 02:01:58;;;;;;;12.47;8.50;;;;;;;-0.75;82.82;101128.25;6201530;28;20339;-68
2022/12/16 02:05:21;;;;;;;12.30;8.07;;;;;;;-0.76;83.67;101122.09;6197577;28;20233;-67
2022/12/16 02:08:42;;;;;;;9.93;7.27;;;;;;;-0.74;83.58;101132.63;6201887;28;20229;-69
2022/12/16 02:12:19;;;;;;;13.13;9.17;;;;;;;-0.53;83.66;101134.44;6197261;28;20236;-68
2022/12/16 02:15:44;;;;;;;11.77;9.20;;;;;;;-0.39;82.60;101132.09;6187727;28;21150;-69
2022/12/16 02:19:25;;;;;;;13.13;8.70;;;;;;;-0.24;82.09;101128.84;6191479;28;20234;-68
2022/12/16 02:23:11;;;;;;;14.43;8.97;;;;;;;-0.61;82.16;101124.16;6205761;28;20232;-68
2022/12/16 02:26:56;;;;;;;10.17;7.90;;;;;;;-0.86;83.81;101120.72;6189119;28;20233;-68
2022/12/16 02:30:43;;;;;;;10.13;9.03;;;;;;;-0.85;84.13;101122.44;6196112;28;20225;-69
2022/12/16 02:34:17;;;;;;;16.50;9.73;;;;;;;-0.92;84.34;101118.31;6196734;28;20312;-68
2022/12/16 02:37:44;;;;;;;13.80;9.70;;;;;;;-0.76;83.72;101130.03;6204200;28;20614;-68
2022/12/16 02:41:12;;;;;;;16.80;10.30;;;;;;;-0.64;83.45;101131.34;6181785;28;20221;-69
2022/12/16 02:44:39;;;;;;;13.00;8.67;;;;;;;-0.96;83.70;101130.78;6192022;28;20237;-68
2022/12/16 02:48:02;;;;;;;14.60;8.80;;;;;;;-0.92;83.26;101132.41;6203377;28;20225;-69
2022/12/16 02:51:26;;;;;;;11.10;9.50;;;;;;;-1.03;84.23;101131.94;6194281;28;20803;-68
2022/12/16 02:54:49;;;;;;;11.33;7.87;;;;;;;-1.03;84.09;101131.09;6194633;28;20253;-68
2022/12/16 02:58:16;;;;;;;12.77;8.37;;;;;;;-1.18;84.35;101137.81;6206687;28;20233;-68
2022/12/16 03:01:46;;;;;;;10.97;9.77;;;;;;;-1.31;84.95;101131.22;6194076;28;20229;-68
2022/12/16 03:05:13;;;;;;;17.53;9.37;;;;;;;-1.26;84.75;101131.06;6196568;28;20229;-68
2022/12/16 03:08:39;;;;;;;11.37;9.27;;;;;;;-1.25;85.04;101127.53;6201989;28;20229;-68
2022/12/16 03:12:03;;;;;;;12.63;10.37;;;;;;;-1.29;84.71;101123.22;6189250;28;20666;-68
2022/12/16 03:15:27;;;;;;;13.70;8.63;;;;;;;-1.40;85.39;101133.34;6186478;28;20237;-69
2022/12/16 03:18:54;;;;;;;9.77;8.77;;;;;;;-1.35;85.12;101136.69;6204241;28;20521;-68
2022/12/16 03:22:20;;;;;;;11.30;7.43;;;;;;;-1.48;85.79;101140.69;6182770;28;20519;-68
2022/12/16 03:25:43;;;;;;;13.60;10.77;;;;;;;-1.51;85.85;101148.72;6196368;28;20225;-68
2022/12/16 03:29:09;;;;;;;11.47;8.30;;;;;;;-1.46;85.90;101149.44;6205504;28;20260;-67
2022/12/16 03:32:37;;;;;;;13.93;9.40;;;;;;;-1.55;85.61;101153.25;6203716;28;20316;-68
2022/12/16 03:36:01;;;;;;;9.77;7.70;;;;;;;-1.64;86.53;101151.78;6190055;28;21168;-67
2022/12/16 03:39:25;;;;;;;11.67;8.83;;;;;;;-1.53;86.09;101150.56;6194699;28;20611;-68
2022/12/16 03:42:47;;;;;;;14.27;10.43;;;;;;;-1.41;85.71;101155.41;6204618;28;20225;-68
2022/12/16 03:49:51;;;;;;;10.87;8.33;;;;;;;-1.50;85.09;101147.81;6111277;23;20699;-69
2022/12/16 03:53:12;;;;;;;14.13;9.23;;;;;;;-1.58;85.54;101150.72;6089336;28;20239;-68
2022/12/16 03:56:34;;;;;;;13.20;8.87;;;;;;;-1.61;85.34;101156.13;6076535;28;20530;-68
2022/12/16 03:59:55;;;;;;;13.87;9.30;;;;;;;-1.67;85.52;101161.63;6078697;29;20232;-68
2022/12/16 04:03:16;;;;;;;18.57;9.17;;;;;;;-1.59;85.45;101169.28;6086564;29;20233;-68
2022/12/16 04:06:36;;;;;;;13.57;10.77;;;;;;;-1.38;85.38;101174.69;6086367;29;20323;-69
2022/12/16 04:09:57;;;;;;;10.60;8.03;;;;;;;-1.53;85.00;101175.22;6080144;28;20318;-68
2022/12/16 04:24:19;;;;;;;14.77;9.93;;;;;;;-1.74;85.57;101187.38;6074640;28;20342;-68
2022/12/16 04:27:45;;;;;;;10.50;9.27;;;;;;;-1.85;85.36;101199.19;6086872;29;20228;-69
2022/12/16 04:31:08;;;;;;;9.20;8.07;;;;;;;-1.89;86.34;101195.81;6058542;28;20610;-69
2022/12/16 04:34:28;;;;;;;12.30;9.07;;;;;;;-1.83;85.87;101200.88;6063719;28;20350;-69
